createdAt,value
2022-09-02T00:01:24.922Z,9.35
2022-09-02T00:03:53.062Z,9.29
2022-09-02T00:06:19.721Z,9.37
2022-09-02T00:08:46.433Z,9.45
2022-09-02T00:11:18.506Z,9.42
2022-09-02T00:13:47.098Z,9.37
2022-09-02T00:16:14.766Z,9.44
2022-09-02T00:18:44.942Z,9.34
2022-09-02T00:21:13.713Z,9.30
2022-09-02T00:23:44.509Z,9.28
2022-09-02T00:26:13.437Z,9.18
2022-09-02T00:28:51.088Z,9.21
2022-09-02T00:31:23.604Z,9.11
2022-09-02T00:33:51.472Z,9.15
2022-09-02T00:36:18.090Z,9.07
2022-09-02T00:38:44.691Z,9.09
2022-09-02T00:41:11.893Z,9.01
2022-09-02T00:43:46.546Z,8.95
2022-09-02T00:46:19.466Z,8.99
2022-09-02T00:49:12.656Z,8.86
2022-09-02T00:51:47.309Z,8.84
2022-09-02T00:54:16.672Z,8.87
2022-09-02T00:56:46.091Z,8.90
2022-09-02T00:59:20.808Z,8.77
2022-09-02T01:01:47.877Z,8.77
2022-09-02T01:04:15.679Z,8.76
2022-09-02T01:06:42.283Z,8.69
2022-09-02T01:09:13.290Z,8.63
2022-09-02T01:11:47.951Z,8.67
2022-09-02T01:14:17.606Z,8.73
2022-09-02T01:16:47.559Z,8.75
2022-09-02T01:19:30.658Z,8.79
2022-09-02T01:21:57.849Z,8.73
2022-09-02T01:24:32.647Z,8.73
2022-09-02T01:27:00.331Z,8.77
2022-09-02T01:29:28.771Z,8.81
2022-09-02T01:31:55.782Z,8.85
2022-09-02T01:34:23.295Z,8.76
2022-09-02T01:36:50.077Z,8.85
2022-09-02T01:39:17.352Z,8.91
2022-09-02T01:41:44.510Z,8.97
2022-09-02T01:44:11.079Z,8.83
2022-09-02T01:46:37.812Z,8.81
2022-09-02T01:49:04.764Z,8.80
2022-09-02T01:51:31.419Z,8.84
2022-09-02T01:53:58.000Z,8.87
2022-09-02T01:56:24.589Z,8.81
2022-09-02T01:58:51.205Z,8.80
2022-09-02T02:01:19.705Z,8.83
2022-09-02T02:03:46.881Z,8.83
2022-09-02T02:06:16.746Z,8.75
2022-09-02T02:08:44.034Z,8.82
2022-09-02T02:11:10.847Z,8.75
2022-09-02T02:13:37.802Z,8.69
2022-09-02T02:16:05.723Z,8.71
2022-09-02T02:18:32.383Z,8.82
2022-09-02T02:20:58.911Z,8.95
2022-09-02T02:23:26.160Z,9.34
2022-09-02T02:25:52.856Z,9.59
2022-09-02T02:28:19.507Z,9.77
2022-09-02T02:30:46.093Z,9.92
2022-09-02T02:33:13.612Z,10.13
2022-09-02T02:35:41.303Z,10.26
2022-09-02T02:38:08.532Z,10.39
2022-09-02T02:40:35.545Z,10.47
2022-09-02T02:43:02.260Z,10.35
2022-09-02T02:45:29.373Z,10.44
2022-09-02T02:47:55.903Z,10.40
2022-09-02T02:50:24.185Z,10.38
2022-09-02T02:52:53.376Z,10.37
2022-09-02T02:55:20.595Z,10.52
2022-09-02T02:57:47.343Z,10.54
2022-09-02T03:00:16.621Z,10.53
2022-09-02T03:02:43.334Z,10.67
2022-09-02T03:05:13.387Z,10.62
2022-09-02T03:07:39.955Z,10.71
2022-09-02T03:10:08.589Z,10.77
2022-09-02T03:12:36.753Z,10.77
2022-09-02T03:15:04.757Z,10.85
2022-09-02T03:17:31.474Z,10.74
2022-09-02T03:19:59.176Z,10.79
2022-09-02T03:22:28.860Z,10.81
2022-09-02T03:24:55.857Z,10.77
2022-09-02T03:27:22.623Z,10.90
2022-09-02T03:29:49.178Z,10.82
2022-09-02T03:32:16.975Z,10.87
2022-09-02T03:34:43.620Z,10.82
2022-09-02T03:37:10.393Z,10.80
2022-09-02T03:39:39.415Z,10.75
2022-09-02T03:42:06.374Z,10.71
2022-09-02T03:44:34.314Z,10.72
2022-09-02T03:47:01.029Z,10.67
2022-09-02T03:49:28.809Z,10.64
2022-09-02T03:51:56.080Z,10.63
2022-09-02T03:54:23.197Z,10.79
2022-09-02T03:56:50.045Z,10.78
2022-09-02T03:59:17.053Z,10.76
2022-09-02T04:01:45.190Z,10.68
2022-09-02T04:04:12.067Z,10.65
2022-09-02T04:06:38.779Z,10.59
2022-09-02T04:09:05.973Z,10.54
2022-09-02T04:11:32.645Z,10.67
2022-09-02T04:13:59.491Z,10.58
2022-09-02T04:17:22.301Z,10.55
2022-09-02T04:20:44.922Z,10.53
2022-09-02T04:23:11.816Z,10.61
2022-09-02T04:25:41.892Z,10.60
2022-09-02T04:28:08.483Z,10.60
2022-09-02T04:30:37.963Z,10.56
2022-09-02T04:33:05.869Z,10.58
2022-09-02T04:35:32.418Z,10.55
2022-09-02T04:37:59.596Z,10.71
2022-09-02T04:40:26.275Z,10.71
2022-09-02T04:42:55.452Z,10.76
2022-09-02T04:45:24.584Z,10.83
2022-09-02T04:47:53.294Z,10.95
2022-09-02T04:50:20.068Z,10.91
2022-09-02T04:52:46.574Z,10.99
2022-09-02T04:55:13.160Z,11.01
2022-09-02T04:57:39.746Z,11.08
2022-09-02T05:00:08.214Z,11.71
2022-09-02T05:02:35.216Z,13.39
2022-09-02T05:05:02.060Z,14.48
2022-09-02T05:07:28.671Z,15.13
2022-09-02T05:10:01.035Z,15.40
2022-09-02T05:12:28.085Z,15.19
2022-09-02T05:14:57.103Z,15.52
2022-09-02T05:17:23.749Z,15.93
2022-09-02T05:19:50.327Z,16.06
2022-09-02T05:22:17.040Z,16.92
2022-09-02T05:24:43.759Z,17.80
2022-09-02T05:27:10.572Z,17.86
2022-09-02T05:29:37.539Z,17.89
2022-09-02T05:32:05.155Z,18.16
2022-09-02T05:34:35.692Z,17.82
2022-09-02T05:37:04.116Z,18.27
2022-09-02T05:39:31.224Z,19.20
2022-09-02T05:41:58.364Z,20.25
2022-09-02T05:44:25.081Z,20.87
2022-09-02T05:46:51.728Z,21.50
2022-09-02T05:49:18.498Z,20.74
2022-09-02T05:51:50.775Z,20.52
2022-09-02T05:54:21.160Z,21.40
2022-09-02T05:56:50.051Z,21.64
2022-09-02T05:59:19.696Z,22.21
2022-09-02T06:01:47.078Z,22.32
2022-09-02T06:04:13.952Z,21.83
2022-09-02T06:06:41.897Z,22.84
2022-09-02T06:09:10.688Z,22.90
2022-09-02T06:11:39.959Z,24.84
2022-09-02T06:14:10.246Z,24.38
2022-09-02T06:16:38.119Z,23.56
2022-09-02T06:19:05.046Z,23.47
2022-09-02T06:21:32.528Z,22.30
2022-09-02T06:23:59.988Z,22.96
2022-09-02T06:26:26.911Z,23.71
2022-09-02T06:28:53.455Z,25.05
2022-09-02T06:31:22.970Z,24.97
2022-09-02T06:33:53.147Z,24.03
2022-09-02T06:36:21.552Z,22.52
2022-09-02T06:38:52.953Z,23.57
2022-09-02T06:41:23.378Z,22.87
2022-09-02T06:43:50.611Z,23.13
2022-09-02T06:46:23.274Z,24.36
2022-09-02T06:48:50.287Z,23.27
2022-09-02T06:51:22.127Z,25.29
2022-09-02T06:53:48.692Z,25.90
2022-09-02T06:56:16.223Z,25.20
2022-09-02T06:58:43.804Z,27.10
2022-09-02T07:01:13.362Z,26.01
2022-09-02T07:03:58.669Z,26.15
2022-09-02T07:06:25.967Z,25.42
2022-09-02T07:08:52.591Z,24.55
2022-09-02T07:11:23.808Z,25.15
2022-09-02T07:13:50.996Z,24.83
2022-09-02T07:16:26.928Z,25.66
2022-09-02T07:18:54.396Z,25.63
2022-09-02T07:21:20.966Z,25.93
2022-09-02T07:23:47.603Z,27.41
2022-09-02T07:26:16.177Z,27.88
2022-09-02T07:28:43.217Z,27.56
2022-09-02T07:31:15.138Z,28.20
2022-09-02T07:33:44.299Z,29.58
2022-09-02T07:36:16.694Z,28.30
2022-09-02T07:38:43.330Z,26.94
2022-09-02T07:41:10.754Z,27.07
2022-09-02T07:43:38.029Z,28.53
2022-09-02T07:46:06.348Z,28.44
2022-09-02T07:48:34.569Z,28.50
2022-09-02T07:51:01.478Z,29.17
2022-09-02T07:53:28.563Z,27.53
2022-09-02T07:55:55.186Z,28.00
2022-09-02T07:58:22.509Z,28.10
2022-09-02T08:00:50.342Z,28.93
2022-09-02T08:03:18.147Z,29.10
2022-09-02T08:05:47.154Z,29.73
2022-09-02T08:08:15.786Z,28.65
2022-09-02T08:10:42.799Z,30.47
2022-09-02T08:13:10.549Z,31.19
2022-09-02T08:15:38.897Z,29.50
2022-09-02T08:18:06.929Z,29.96
2022-09-02T08:20:35.632Z,29.53
2022-09-02T08:23:11.622Z,30.16
2022-09-02T08:25:45.495Z,30.50
2022-09-02T08:28:12.060Z,30.09
2022-09-02T08:30:38.970Z,28.84
2022-09-02T08:33:05.922Z,30.23
2022-09-02T08:35:32.997Z,29.61
2022-09-02T08:38:01.496Z,28.52
2022-09-02T08:40:37.281Z,29.97
2022-09-02T08:43:39.928Z,30.57
2022-09-02T08:46:11.289Z,30.35
2022-09-02T08:48:46.238Z,29.24
2022-09-02T08:51:24.247Z,30.79
2022-09-02T08:54:13.776Z,31.04
2022-09-02T08:56:41.658Z,29.49
2022-09-02T08:59:10.339Z,28.73
2022-09-02T09:01:53.500Z,28.37
2022-09-02T09:04:22.937Z,30.13
2022-09-02T09:07:01.436Z,30.13
2022-09-02T09:10:05.930Z,30.74
2022-09-02T09:12:57.038Z,29.69
2022-09-02T09:15:40.374Z,29.87
2022-09-02T09:18:17.089Z,30.03
2022-09-02T09:20:45.215Z,30.42
2022-09-02T09:23:35.127Z,30.35
2022-09-02T09:26:12.254Z,30.15
2022-09-02T09:28:49.309Z,28.99
2022-09-02T09:31:21.757Z,28.83
2022-09-02T09:34:14.673Z,29.00
2022-09-02T09:36:41.187Z,29.00
2022-09-02T09:39:24.871Z,28.83
2022-09-02T09:41:54.786Z,27.49
2022-09-02T09:44:46.413Z,28.51
2022-09-02T09:47:22.824Z,29.37
2022-09-02T09:50:09.491Z,27.68
2022-09-02T09:52:36.291Z,27.89
2022-09-02T09:55:24.970Z,29.00
2022-09-02T09:57:53.563Z,29.61
2022-09-02T10:00:26.915Z,29.26
2022-09-02T10:02:56.830Z,29.65
2022-09-02T10:05:40.365Z,30.59
2022-09-02T10:08:22.681Z,29.18
2022-09-02T10:10:55.577Z,29.59
2022-09-02T10:13:25.742Z,29.86
2022-09-02T10:16:04.289Z,29.50
2022-09-02T10:18:42.686Z,30.04
2022-09-02T10:21:39.058Z,27.86
2022-09-02T10:24:38.381Z,27.60
2022-09-02T10:27:09.208Z,28.11
2022-09-02T10:29:35.689Z,28.51
2022-09-02T10:32:33.140Z,29.17
2022-09-02T10:35:08.500Z,29.38
2022-09-02T10:37:52.169Z,28.42
2022-09-02T10:40:27.393Z,28.34
2022-09-02T10:42:57.365Z,29.40
2022-09-02T10:45:46.808Z,29.43
2022-09-02T10:48:41.534Z,28.96
2022-09-02T10:51:16.818Z,31.08
2022-09-02T10:53:54.790Z,29.74
2022-09-02T10:56:29.295Z,30.22
2022-09-02T10:59:02.870Z,29.68
2022-09-02T11:01:52.553Z,28.78
2022-09-02T11:04:40.782Z,29.27
2022-09-02T11:07:10.924Z,28.12
2022-09-02T11:09:54.646Z,29.01
2022-09-02T11:12:32.043Z,29.35
2022-09-02T11:15:24.077Z,29.06
2022-09-02T11:18:00.544Z,28.53
2022-09-02T11:20:39.749Z,28.05
2022-09-02T11:23:25.049Z,29.59
2022-09-02T11:26:08.747Z,28.59
2022-09-02T11:28:59.826Z,29.81
2022-09-02T11:31:54.700Z,28.99
2022-09-02T11:34:38.431Z,28.23
2022-09-02T11:37:08.959Z,28.27
2022-09-02T11:40:06.659Z,28.02
2022-09-02T11:42:50.493Z,28.51
2022-09-02T11:45:22.112Z,28.62
2022-09-02T11:48:29.831Z,27.32
2022-09-02T11:53:48.775Z,28.69
2022-09-02T11:56:35.626Z,28.84
2022-09-02T11:59:04.442Z,28.88
2022-09-02T12:01:43.640Z,29.36
2022-09-02T12:04:56.133Z,28.55
2022-09-02T12:07:07.921Z,27.62
2022-09-02T12:10:03.504Z,28.84
2022-09-02T12:12:39.302Z,29.05
2022-09-02T12:15:06.582Z,28.99
2022-09-02T12:17:47.284Z,27.97
2022-09-02T12:20:38.978Z,27.11
2022-09-02T12:23:07.885Z,28.13
2022-09-02T12:25:40.672Z,28.30
2022-09-02T12:28:27.802Z,27.26
2022-09-02T12:31:09.103Z,27.40
2022-09-02T12:33:46.494Z,27.67
2022-09-02T12:36:40.063Z,28.18
2022-09-02T12:39:25.391Z,27.23
2022-09-02T12:41:58.062Z,26.86
2022-09-02T12:44:52.580Z,26.72
2022-09-02T12:47:26.574Z,26.62
2022-09-02T12:49:59.625Z,26.92
2022-09-02T12:52:35.646Z,27.30
2022-09-02T12:55:31.753Z,26.51
2022-09-02T12:58:19.934Z,27.47
2022-09-02T13:01:23.743Z,26.88
2022-09-02T13:04:19.576Z,26.67
2022-09-02T13:07:07.701Z,26.40
2022-09-02T13:09:46.419Z,26.33
2022-09-02T13:12:37.650Z,26.88
2022-09-02T13:15:26.814Z,26.82
2022-09-02T13:18:24.043Z,25.57
2022-09-02T13:21:41.296Z,25.14
2022-09-02T13:24:13.276Z,25.39
2022-09-02T13:27:36.849Z,25.64
2022-09-02T13:30:20.022Z,25.58
2022-09-02T13:32:56.721Z,25.38
2022-09-02T13:35:28.022Z,25.93
2022-09-02T13:38:00.746Z,25.92
2022-09-02T13:40:38.361Z,26.27
2022-09-02T13:43:18.793Z,25.32
2022-09-02T13:45:46.800Z,25.92
2022-09-02T13:48:28.025Z,26.00
2022-09-02T13:51:22.802Z,24.92
2022-09-02T13:57:19.750Z,25.49
2022-09-02T13:59:57.050Z,24.72
2022-09-02T14:02:33.191Z,24.18
2022-09-02T14:05:06.791Z,22.84
2022-09-02T14:11:22.484Z,22.13
2022-09-02T14:13:51.120Z,21.91
2022-09-02T14:16:36.331Z,21.78
2022-09-02T14:19:05.041Z,21.64
2022-09-02T18:20:46.996Z,15.31
2022-09-02T18:23:57.590Z,15.04
2022-09-02T18:27:01.611Z,14.96
2022-09-02T18:30:03.519Z,14.75
2022-09-02T18:33:09.602Z,14.62
2022-09-02T18:35:45.052Z,14.42
2022-09-02T18:38:28.675Z,14.35
2022-09-02T18:41:13.738Z,14.17
2022-09-02T18:44:07.676Z,14.12
2022-09-02T18:46:49.749Z,14.00
2022-09-02T18:49:17.158Z,13.89
2022-09-02T18:51:44.987Z,13.75
2022-09-02T18:54:23.778Z,13.71
2022-09-02T18:56:58.394Z,13.67
2022-09-02T18:59:37.974Z,13.61
2022-09-02T19:02:19.257Z,13.57
2022-09-02T19:04:46.394Z,13.44
2022-09-02T19:07:32.147Z,13.42
2022-09-02T19:10:01.343Z,13.47
2022-09-02T19:12:32.842Z,13.36
2022-09-02T19:15:00.756Z,13.37
2022-09-02T19:17:27.582Z,13.25
2022-09-02T19:19:54.191Z,13.21
2022-09-02T19:22:28.517Z,13.07
2022-09-02T19:25:01.357Z,12.76
2022-09-02T19:27:32.389Z,12.68
2022-09-02T19:30:12.440Z,12.67
2022-09-02T19:32:40.876Z,12.70
2022-09-02T19:35:16.554Z,12.65
2022-09-02T19:37:47.870Z,12.63
2022-09-02T19:40:20.038Z,12.61
2022-09-02T19:42:46.709Z,12.41
2022-09-02T19:45:16.411Z,12.36
2022-09-02T19:48:05.978Z,12.28
2022-09-02T19:50:30.859Z,12.34
2022-09-02T19:52:57.474Z,12.26
2022-09-02T19:55:24.411Z,12.17
2022-09-02T19:57:53.198Z,12.13
2022-09-02T20:00:23.436Z,12.21
2022-09-02T20:02:51.097Z,12.05
2022-09-02T20:05:17.747Z,11.93
2022-09-02T20:07:44.297Z,11.83
2022-09-02T20:10:11.187Z,11.99
2022-09-02T20:12:37.789Z,11.97
2022-09-02T20:15:07.306Z,12.00
2022-09-02T20:17:34.108Z,11.98
2022-09-02T20:20:08.429Z,11.94
2022-09-02T20:22:35.238Z,11.79
2022-09-02T20:25:01.883Z,11.77
2022-09-02T20:27:49.935Z,11.83
2022-09-02T20:30:18.593Z,11.75
2022-09-02T20:32:58.568Z,11.71
2022-09-02T20:35:49.416Z,11.70
2022-09-02T20:38:28.067Z,11.62
2022-09-02T20:41:23.596Z,11.56
2022-09-02T20:44:15.043Z,11.52
2022-09-02T20:47:15.722Z,11.49
2022-09-02T20:50:11.681Z,11.46
2022-09-02T20:53:14.083Z,11.36
2022-09-02T20:56:03.951Z,11.35
2022-09-02T20:58:59.313Z,11.46
2022-09-02T21:01:36.039Z,11.29
2022-09-02T21:04:12.134Z,11.20
2022-09-02T21:06:50.235Z,11.29
2022-09-02T21:09:28.596Z,11.16
2022-09-02T21:12:08.045Z,11.19
2022-09-02T21:14:51.711Z,11.18
2022-09-02T21:17:33.469Z,11.01
2022-09-02T21:20:24.528Z,11.01
2022-09-02T21:22:57.157Z,10.92
2022-09-02T21:25:45.606Z,10.99
2022-09-02T21:28:19.064Z,11.04
2022-09-02T21:31:03.440Z,11.15
2022-09-02T21:33:33.748Z,11.07
2022-09-02T21:36:02.541Z,11.07
2022-09-02T21:38:38.226Z,11.02
2022-09-02T21:41:16.921Z,10.93
2022-09-02T21:43:55.774Z,10.82
2022-09-02T21:47:01.697Z,10.63
2022-09-02T21:49:35.060Z,10.63
2022-09-02T21:52:29.630Z,10.60
2022-09-02T21:55:09.434Z,10.56
2022-09-02T21:58:02.030Z,10.48
2022-09-02T22:00:28.774Z,10.54
2022-09-02T22:03:26.469Z,10.67
2022-09-02T22:06:10.301Z,10.68
2022-09-02T22:09:02.503Z,10.59
2022-09-02T22:11:39.679Z,10.53
2022-09-02T22:14:22.593Z,10.59
2022-09-02T22:16:56.089Z,10.47
2022-09-02T22:19:29.911Z,10.57
2022-09-02T22:22:18.545Z,10.56
2022-09-02T22:24:47.964Z,10.53
2022-09-02T22:27:20.238Z,10.47
2022-09-02T22:29:54.191Z,10.57
2022-09-02T22:32:24.029Z,10.54
2022-09-02T22:35:11.695Z,10.53
2022-09-02T22:38:03.230Z,10.56
2022-09-02T22:40:33.989Z,10.57
2022-09-02T22:43:10.559Z,10.56
2022-09-02T22:46:04.583Z,10.49
2022-09-02T22:48:57.815Z,10.35
2022-09-02T22:51:52.094Z,10.44
2022-09-02T22:54:18.687Z,10.43
2022-09-02T22:57:04.078Z,10.45
2022-09-02T22:59:33.365Z,10.41
2022-09-02T23:02:21.597Z,10.45
2022-09-02T23:05:02.833Z,10.45
2022-09-02T23:07:33.107Z,10.40
2022-09-02T23:10:00.873Z,10.33
2022-09-02T23:13:11.986Z,10.27
2022-09-02T23:15:49.542Z,10.23
2022-09-02T23:18:29.489Z,10.10
2022-09-02T23:21:19.654Z,10.07
2022-09-02T23:23:52.506Z,9.94
2022-09-02T23:26:45.162Z,9.93
2022-09-02T23:29:26.481Z,9.88
2022-09-02T23:32:32.000Z,9.77
2022-09-02T23:35:17.477Z,9.86
2022-09-02T23:37:56.876Z,9.72
2022-09-02T23:40:27.903Z,9.69
2022-09-02T23:42:58.048Z,9.58
2022-09-02T23:45:32.067Z,9.57
2022-09-02T23:48:13.752Z,9.56
2022-09-02T23:51:03.921Z,9.54
2022-09-02T23:53:34.053Z,9.61
2022-09-02T23:56:33.692Z,9.55
2022-09-02T23:59:10.071Z,9.53
